createdAt,value
2017-08-30T00:00:40.094Z,22.04
2017-08-30T00:03:06.973Z,22.13
2017-08-30T00:05:33.883Z,22.22
2017-08-30T00:08:00.754Z,22.31
2017-08-30T00:10:27.632Z,22.29
2017-08-30T00:12:54.515Z,22.45
2017-08-30T00:15:21.388Z,21.98
2017-08-30T00:17:48.344Z,22.41
2017-08-30T00:20:15.231Z,22.25
2017-08-30T00:22:42.159Z,22.13
2017-08-30T00:25:27.381Z,22.22
2017-08-30T00:27:54.292Z,21.69
2017-08-30T00:30:21.212Z,21.55
2017-08-30T00:32:48.125Z,21.42
2017-08-30T00:35:15.023Z,21.69
2017-08-30T00:37:41.894Z,21.61
2017-08-30T00:40:08.798Z,21.61
2017-08-30T00:42:35.671Z,21.53
2017-08-30T00:45:02.626Z,21.75
2017-08-30T00:47:29.559Z,21.57
2017-08-30T00:49:56.483Z,21.75
2017-08-30T00:52:23.450Z,22.07
2017-08-30T00:54:50.378Z,21.62
2017-08-30T00:57:17.279Z,21.39
2017-08-30T00:59:44.162Z,21.08
2017-08-30T01:02:11.150Z,21.09
2017-08-30T01:04:38.031Z,21.77
2017-08-30T01:07:04.962Z,21.76
2017-08-30T01:09:31.848Z,21.87
2017-08-30T01:11:58.744Z,21.95
2017-08-30T01:14:25.614Z,22.18
2017-08-30T01:16:52.506Z,22.26
2017-08-30T01:19:19.492Z,21.99
2017-08-30T01:21:46.438Z,22.34
2017-08-30T01:24:13.358Z,22.17
2017-08-30T01:26:40.258Z,21.53
2017-08-30T01:29:07.138Z,21.76
2017-08-30T01:31:33.998Z,21.72
2017-08-30T01:34:00.890Z,21.65
2017-08-30T01:36:27.764Z,21.62
2017-08-30T01:38:54.666Z,21.49
2017-08-30T01:41:21.569Z,21.95
2017-08-30T01:43:48.437Z,21.73
2017-08-30T01:46:15.340Z,22.12
2017-08-30T01:48:42.252Z,21.77
2017-08-30T01:51:09.145Z,21.83
2017-08-30T01:53:36.078Z,21.86
2017-08-30T01:56:02.971Z,21.67
2017-08-30T01:58:29.844Z,21.60
2017-08-30T02:00:56.749Z,21.60
2017-08-30T02:03:23.679Z,21.33
2017-08-30T02:05:50.552Z,21.76
2017-08-30T02:08:17.483Z,21.35
2017-08-30T02:10:44.370Z,21.75
2017-08-30T02:13:11.233Z,21.21
2017-08-30T02:15:38.116Z,22.08
2017-08-30T02:18:04.985Z,21.90
2017-08-30T02:20:31.891Z,21.94
2017-08-30T02:22:58.793Z,22.31
2017-08-30T02:25:25.717Z,21.67
2017-08-30T02:27:52.620Z,21.38
2017-08-30T02:30:19.507Z,21.77
2017-08-30T02:32:46.420Z,22.18
2017-08-30T02:35:13.368Z,21.70
2017-08-30T02:37:40.258Z,22.02
2017-08-30T02:40:07.137Z,21.73
2017-08-30T02:42:34.047Z,21.40
2017-08-30T02:45:00.933Z,21.99
2017-08-30T02:47:27.829Z,21.99
2017-08-30T02:49:54.718Z,22.23
2017-08-30T02:52:21.596Z,22.19
2017-08-30T02:54:48.473Z,21.69
2017-08-30T02:57:15.441Z,21.61
2017-08-30T02:59:42.307Z,21.55
2017-08-30T03:02:09.212Z,22.04
2017-08-30T03:04:36.116Z,21.76
2017-08-30T03:07:03.024Z,21.81
2017-08-30T03:09:29.906Z,21.73
2017-08-30T03:11:56.821Z,21.26
2017-08-30T03:14:23.784Z,21.85
2017-08-30T03:16:50.664Z,21.59
2017-08-30T03:19:17.564Z,21.23
2017-08-30T03:21:44.447Z,21.30
2017-08-30T03:24:11.379Z,21.15
2017-08-30T03:26:38.265Z,21.06
2017-08-30T03:29:05.153Z,20.54
2017-08-30T03:31:32.038Z,20.84
2017-08-30T03:33:58.919Z,20.54
2017-08-30T03:36:25.826Z,21.15
2017-08-30T03:38:52.732Z,20.48
2017-08-30T03:41:19.641Z,20.66
2017-08-30T03:43:46.503Z,20.68
2017-08-30T03:46:13.387Z,20.45
2017-08-30T03:48:40.270Z,20.94
2017-08-30T03:51:07.155Z,20.74
2017-08-30T03:53:34.066Z,21.15
2017-08-30T03:56:00.998Z,20.51
2017-08-30T03:58:27.880Z,20.89
2017-08-30T04:00:54.771Z,20.88
2017-08-30T04:03:21.730Z,20.62
2017-08-30T04:05:48.645Z,20.42
2017-08-30T04:08:15.549Z,20.73
2017-08-30T04:10:42.429Z,20.90
2017-08-30T04:13:09.340Z,21.01
2017-08-30T04:15:36.250Z,20.35
2017-08-30T04:18:03.132Z,19.95
2017-08-30T04:20:30.060Z,20.39
2017-08-30T04:22:56.976Z,20.35
2017-08-30T04:25:23.883Z,20.74
2017-08-30T04:27:50.800Z,20.50
2017-08-30T04:30:17.746Z,20.89
2017-08-30T04:32:44.610Z,20.96
2017-08-30T04:35:11.516Z,20.45
2017-08-30T04:37:38.422Z,20.96
2017-08-30T04:40:05.362Z,20.33
2017-08-30T04:42:32.257Z,20.36
2017-08-30T04:44:59.157Z,20.03
2017-08-30T04:47:26.044Z,20.00
2017-08-30T04:49:52.910Z,20.15
2017-08-30T04:52:19.791Z,20.54
2017-08-30T04:54:46.678Z,19.88
2017-08-30T04:57:13.549Z,20.23
2017-08-30T04:59:40.403Z,20.65
2017-08-30T05:02:07.291Z,20.52
2017-08-30T05:04:34.190Z,20.14
2017-08-30T05:07:01.082Z,20.09
2017-08-30T05:09:27.950Z,20.54
2017-08-30T05:11:54.844Z,20.23
2017-08-30T05:14:21.692Z,20.71
2017-08-30T05:16:48.580Z,20.24
2017-08-30T05:19:15.508Z,20.42
2017-08-30T05:21:42.396Z,20.76
2017-08-30T05:24:09.286Z,20.44
2017-08-30T05:26:36.159Z,20.60
2017-08-30T05:32:07.703Z,20.90
2017-08-30T05:34:34.549Z,20.79
2017-08-30T05:37:01.414Z,21.08
2017-08-30T05:39:28.219Z,20.83
2017-08-30T05:41:55.192Z,21.32
2017-08-30T05:44:21.995Z,21.04
2017-08-30T05:46:48.830Z,21.30
2017-08-30T05:49:15.660Z,21.42
2017-08-30T05:51:42.512Z,21.53
2017-08-30T05:54:09.346Z,21.33
2017-08-30T05:56:36.250Z,21.27
2017-08-30T05:59:03.077Z,21.79
2017-08-30T06:01:29.935Z,21.33
2017-08-30T06:03:56.773Z,21.47
2017-08-30T06:06:23.607Z,21.85
2017-08-30T06:08:50.490Z,21.66
2017-08-30T06:11:17.319Z,21.64
2017-08-30T06:13:44.161Z,21.95
2017-08-30T06:16:11.040Z,21.57
2017-08-30T06:18:37.887Z,21.91
2017-08-30T06:21:05.294Z,22.28
2017-08-30T06:23:32.276Z,22.14
2017-08-30T06:25:59.708Z,22.26
2017-08-30T06:28:31.676Z,22.41
2017-08-30T06:30:58.719Z,22.09
2017-08-30T06:33:25.707Z,21.88
2017-08-30T06:35:53.043Z,22.03
2017-08-30T06:38:20.938Z,22.20
2017-08-30T06:40:49.335Z,22.40
2017-08-30T06:43:16.584Z,22.42
2017-08-30T06:45:49.525Z,22.29
2017-08-30T06:48:17.170Z,22.36
2017-08-30T06:50:44.233Z,22.54
2017-08-30T06:53:16.487Z,22.74
2017-08-30T06:55:43.476Z,22.78
2017-08-30T06:58:10.609Z,22.94
2017-08-30T07:00:37.612Z,23.19
2017-08-30T07:03:04.865Z,23.45
2017-08-30T07:05:37.041Z,23.50
2017-08-30T07:08:09.026Z,23.68
2017-08-30T07:10:36.993Z,23.86
2017-08-30T07:13:03.951Z,23.93
2017-08-30T07:15:30.898Z,23.94
2017-08-30T07:17:57.783Z,24.10
2017-08-30T07:20:30.827Z,24.08
2017-08-30T07:22:57.722Z,24.19
2017-08-30T07:25:29.715Z,24.25
2017-08-30T07:27:56.773Z,24.49
2017-08-30T07:30:23.992Z,24.55
2017-08-30T07:32:50.913Z,24.75
2017-08-30T07:35:17.925Z,24.71
2017-08-30T07:37:44.969Z,24.70
2017-08-30T07:40:11.982Z,24.73
2017-08-30T07:42:39.968Z,24.75
2017-08-30T07:45:06.919Z,24.77
2017-08-30T07:47:34.534Z,24.91
2017-08-30T07:50:01.560Z,24.87
2017-08-30T07:52:29.829Z,24.98
2017-08-30T07:54:58.112Z,24.91
2017-08-30T07:57:25.327Z,24.97
2017-08-30T07:59:57.983Z,25.09
2017-08-30T08:02:24.928Z,25.18
2017-08-30T08:04:55.940Z,25.28
2017-08-30T08:07:23.794Z,25.50
2017-08-30T08:09:51.193Z,25.53
2017-08-30T08:12:18.535Z,25.67
2017-08-30T08:14:45.689Z,25.81
2017-08-30T08:17:12.778Z,25.99
2017-08-30T08:19:39.890Z,26.03
2017-08-30T08:22:06.817Z,26.19
2017-08-30T08:24:45.056Z,26.18
2017-08-30T08:27:11.959Z,26.11
2017-08-30T08:29:38.891Z,26.17
2017-08-30T08:32:05.936Z,26.11
2017-08-30T08:34:33.284Z,26.09
2017-08-30T08:37:00.227Z,26.19
2017-08-30T08:39:27.404Z,26.03
2017-08-30T08:41:54.785Z,26.14
2017-08-30T08:44:22.109Z,26.13
2017-08-30T08:46:49.011Z,26.03
2017-08-30T08:49:16.095Z,26.21
2017-08-30T08:51:43.308Z,26.25
2017-08-30T08:54:11.103Z,26.35
2017-08-30T08:56:38.142Z,26.33
2017-08-30T08:59:08.396Z,26.27
2017-08-30T09:01:36.439Z,26.29
2017-08-30T09:04:03.459Z,26.21
2017-08-30T09:06:30.973Z,26.13
2017-08-30T09:08:58.931Z,26.31
2017-08-30T09:11:26.342Z,26.07
2017-08-30T09:13:53.492Z,26.07
2017-08-30T09:16:25.648Z,25.74
2017-08-30T09:18:52.844Z,25.64
2017-08-30T09:21:25.354Z,25.36
2017-08-30T09:23:52.724Z,25.04
2017-08-30T09:26:19.637Z,24.89
2017-08-30T09:28:47.495Z,24.82
2017-08-30T09:31:14.474Z,24.92
2017-08-30T09:33:42.390Z,24.55
2017-08-30T09:36:10.282Z,24.54
2017-08-30T09:38:37.575Z,24.22
2017-08-30T09:41:10.164Z,24.06
2017-08-30T09:43:37.485Z,23.94
2017-08-30T09:46:05.155Z,24.44
2017-08-30T09:48:37.442Z,24.73
2017-08-30T09:51:05.624Z,24.75
2017-08-30T09:53:36.141Z,24.54
2017-08-30T09:56:04.012Z,24.06
2017-08-30T09:58:36.262Z,23.82
2017-08-30T10:01:03.348Z,23.84
2017-08-30T10:03:30.749Z,24.52
2017-08-30T10:06:02.998Z,24.77
2017-08-30T10:08:33.045Z,24.93
2017-08-30T10:11:00.237Z,25.07
2017-08-30T10:13:28.178Z,25.17
2017-08-30T10:15:57.068Z,25.20
2017-08-30T10:18:29.918Z,25.31
2017-08-30T10:20:57.207Z,25.41
2017-08-30T10:23:29.191Z,25.40
2017-08-30T10:25:56.208Z,25.40
2017-08-30T10:28:23.110Z,25.16
2017-08-30T10:30:55.240Z,25.23
2017-08-30T10:33:22.486Z,25.15
2017-08-30T10:35:54.681Z,25.18
2017-08-30T10:38:21.689Z,25.11
2017-08-30T10:40:48.648Z,24.99
2017-08-30T10:43:16.575Z,24.69
2017-08-30T10:45:44.319Z,24.58
2017-08-30T10:48:12.225Z,24.42
2017-08-30T10:50:40.108Z,24.52
2017-08-30T10:53:07.485Z,24.52
2017-08-30T10:55:35.729Z,24.58
2017-08-30T10:58:07.810Z,24.59
2017-08-30T11:00:34.817Z,24.90
2017-08-30T11:03:02.016Z,25.18
2017-08-30T11:05:29.191Z,25.25
2017-08-30T11:08:01.917Z,25.34
2017-08-30T11:10:28.841Z,25.47
2017-08-30T11:12:56.355Z,25.59
2017-08-30T11:15:23.567Z,25.74
2017-08-30T11:17:58.492Z,25.88
2017-08-30T11:20:27.695Z,26.01
2017-08-30T11:22:58.687Z,26.15
2017-08-30T11:25:25.712Z,26.35
2017-08-30T11:27:57.009Z,26.46
2017-08-30T11:30:24.128Z,26.63
2017-08-30T11:32:51.122Z,26.95
2017-08-30T11:35:18.113Z,27.12
2017-08-30T11:37:45.159Z,27.22
2017-08-30T11:40:13.571Z,27.39
2017-08-30T11:42:45.646Z,27.46
2017-08-30T11:45:17.880Z,27.92
2017-08-30T11:47:44.742Z,27.71
2017-08-30T11:50:12.052Z,28.08
2017-08-30T11:52:39.329Z,28.11
2017-08-30T11:55:07.365Z,28.11
2017-08-30T11:57:34.316Z,28.40
2017-08-30T12:00:01.352Z,27.88
2017-08-30T12:02:33.945Z,28.23
2017-08-30T12:05:06.124Z,28.16
2017-08-30T12:07:33.184Z,28.50
2017-08-30T12:10:00.220Z,28.47
2017-08-30T12:12:27.269Z,28.45
2017-08-30T12:14:54.264Z,28.73
2017-08-30T12:17:21.455Z,28.18
2017-08-30T12:19:48.655Z,28.73
2017-08-30T12:22:20.923Z,28.58
2017-08-30T12:24:47.828Z,28.72
2017-08-30T12:27:15.295Z,28.83
2017-08-30T12:29:42.995Z,28.95
2017-08-30T12:32:09.979Z,29.02
2017-08-30T12:34:37.391Z,28.80
2017-08-30T12:37:10.682Z,28.91
2017-08-30T12:39:39.625Z,28.85
2017-08-30T12:42:11.962Z,29.07
2017-08-30T12:44:40.424Z,28.91
2017-08-30T12:47:08.421Z,28.92
2017-08-30T12:49:39.639Z,28.93
2017-08-30T12:52:07.480Z,29.21
2017-08-30T12:54:34.450Z,28.69
2017-08-30T12:57:07.832Z,28.56
2017-08-30T12:59:40.459Z,28.60
2017-08-30T13:02:08.511Z,28.21
2017-08-30T13:04:41.016Z,28.14
2017-08-30T13:07:08.056Z,28.21
2017-08-30T13:09:40.574Z,28.27
2017-08-30T13:12:08.737Z,28.33
2017-08-30T13:14:36.197Z,28.32
2017-08-30T13:17:03.480Z,28.08
2017-08-30T13:19:30.638Z,28.05
2017-08-30T13:21:57.469Z,27.89
2017-08-30T13:24:24.491Z,27.95
2017-08-30T13:26:56.624Z,27.92
2017-08-30T13:29:28.912Z,27.85
2017-08-30T13:31:55.874Z,27.89
2017-08-30T13:34:22.999Z,27.87
2017-08-30T13:36:49.935Z,27.85
2017-08-30T13:39:17.321Z,27.87
2017-08-30T13:41:44.312Z,27.94
2017-08-30T13:44:16.429Z,27.79
2017-08-30T13:46:43.663Z,27.84
2017-08-30T13:49:10.525Z,27.49
2017-08-30T13:51:37.394Z,27.65
2017-08-30T13:54:04.807Z,27.55
2017-08-30T13:56:36.809Z,27.78
2017-08-30T13:59:09.391Z,27.81
2017-08-30T14:01:36.416Z,27.66
2017-08-30T14:04:09.040Z,27.80
2017-08-30T14:06:35.954Z,27.77
2017-08-30T14:09:02.956Z,27.68
2017-08-30T14:11:29.935Z,27.83
2017-08-30T14:13:57.025Z,27.66
2017-08-30T14:16:29.137Z,27.65
2017-08-30T14:18:56.171Z,27.87
2017-08-30T14:21:23.279Z,27.78
2017-08-30T14:23:50.922Z,27.76
2017-08-30T14:26:18.009Z,27.79
2017-08-30T14:28:50.119Z,27.72
2017-08-30T14:31:22.259Z,27.45
2017-08-30T14:33:49.235Z,27.65
2017-08-30T14:36:16.230Z,27.71
2017-08-30T14:38:43.476Z,27.60
2017-08-30T14:41:11.719Z,27.72
2017-08-30T14:43:39.190Z,27.69
2017-08-30T14:46:09.171Z,27.54
2017-08-30T14:48:36.592Z,27.66
2017-08-30T14:51:07.047Z,27.81
2017-08-30T14:53:34.080Z,27.75
2017-08-30T14:56:08.846Z,27.54
2017-08-30T14:58:39.918Z,27.76
2017-08-30T15:01:06.874Z,27.77
2017-08-30T15:03:33.996Z,27.62
2017-08-30T15:06:01.907Z,27.81
2017-08-30T15:08:29.312Z,27.81
2017-08-30T15:10:56.244Z,27.78
2017-08-30T15:13:23.421Z,27.47
2017-08-30T15:15:50.451Z,27.55
2017-08-30T15:18:17.790Z,27.28
2017-08-30T15:20:44.715Z,27.46
2017-08-30T15:23:14.437Z,27.43
2017-08-30T15:25:41.462Z,27.43
2017-08-30T15:28:08.599Z,27.39
2017-08-30T15:30:35.663Z,27.13
2017-08-30T15:33:03.092Z,27.18
2017-08-30T15:35:30.826Z,27.28
2017-08-30T15:37:58.168Z,27.25
2017-08-30T15:40:30.328Z,27.31
2017-08-30T15:42:58.062Z,27.20
2017-08-30T15:45:25.286Z,27.23
2017-08-30T15:47:52.311Z,27.13
2017-08-30T15:50:22.460Z,27.22
2017-08-30T15:52:49.534Z,27.12
2017-08-30T15:55:16.578Z,27.20
2017-08-30T15:57:43.628Z,27.15
2017-08-30T16:00:15.714Z,27.15
2017-08-30T16:02:43.888Z,26.98
2017-08-30T16:05:12.121Z,26.87
2017-08-30T16:07:39.215Z,26.49
2017-08-30T16:10:06.248Z,26.73
2017-08-30T16:12:34.238Z,26.80
2017-08-30T16:15:01.242Z,26.69
2017-08-30T16:17:29.121Z,26.67
2017-08-30T16:19:56.219Z,26.68
2017-08-30T16:22:24.046Z,26.45
2017-08-30T16:24:51.126Z,26.45
2017-08-30T16:27:18.444Z,26.52
2017-08-30T16:29:45.612Z,26.54
2017-08-30T16:32:12.671Z,26.55
2017-08-30T16:34:45.119Z,26.49
2017-08-30T16:37:13.051Z,26.39
2017-08-30T16:39:46.205Z,26.49
2017-08-30T16:42:13.637Z,26.51
2017-08-30T16:44:45.638Z,26.33
2017-08-30T16:49:45.252Z,26.22
2017-08-30T16:52:13.297Z,26.34
2017-08-30T16:54:40.428Z,26.36
2017-08-30T16:57:07.763Z,26.50
2017-08-30T16:59:35.278Z,26.45
2017-08-30T17:02:02.214Z,26.45
2017-08-30T17:04:29.160Z,26.50
2017-08-30T17:07:01.366Z,26.47
2017-08-30T17:09:28.204Z,26.47
2017-08-30T17:11:55.942Z,26.38
2017-08-30T17:14:23.265Z,26.45
2017-08-30T17:16:50.351Z,26.05
2017-08-30T17:19:17.245Z,25.82
2017-08-30T17:21:44.357Z,26.19
2017-08-30T17:24:11.406Z,26.11
2017-08-30T17:26:39.135Z,26.30
2017-08-30T17:29:06.503Z,26.36
2017-08-30T17:31:34.926Z,26.21
2017-08-30T17:34:02.082Z,25.68
2017-08-30T17:36:34.374Z,25.92
2017-08-30T17:39:01.443Z,25.99
2017-08-30T17:41:28.409Z,26.01
2017-08-30T17:43:55.683Z,25.98
2017-08-30T17:46:22.643Z,25.80
2017-08-30T17:48:53.534Z,26.09
2017-08-30T17:51:20.593Z,26.02
2017-08-30T17:53:48.085Z,25.95
2017-08-30T17:56:21.583Z,25.80
2017-08-30T17:59:00.032Z,25.77
2017-08-30T18:01:35.900Z,25.19
2017-08-30T18:04:11.482Z,25.81
2017-08-30T18:06:46.433Z,25.39
2017-08-30T18:09:24.597Z,24.94
2017-08-30T18:24:52.875Z,24.72
2017-08-30T18:27:20.715Z,24.67
2017-08-30T18:29:48.757Z,25.25
2017-08-30T18:32:19.622Z,25.37
2017-08-30T18:34:46.967Z,25.33
2017-08-30T18:37:20.721Z,25.40
2017-08-30T18:39:49.553Z,24.34
2017-08-30T18:42:22.012Z,24.03
2017-08-30T18:44:51.985Z,24.49
2017-08-30T18:47:20.200Z,24.94
2017-08-30T18:49:53.286Z,24.37
2017-08-30T18:52:22.090Z,23.71
2017-08-30T18:54:56.186Z,24.41
2017-08-30T18:57:25.932Z,24.78
2017-08-30T18:59:56.150Z,24.87
2017-08-30T19:02:23.536Z,24.58
2017-08-30T19:04:51.029Z,24.76
2017-08-30T19:07:18.488Z,24.46
2017-08-30T19:09:56.945Z,23.57
2017-08-30T19:12:24.190Z,23.38
2017-08-30T19:14:59.269Z,23.95
2017-08-30T19:17:26.337Z,24.30
2017-08-30T19:19:54.741Z,24.38
2017-08-30T19:22:21.807Z,24.12
2017-08-30T19:24:50.241Z,24.28
2017-08-30T19:27:23.497Z,23.98
2017-08-30T19:29:50.442Z,23.63
2017-08-30T19:32:17.461Z,23.61
2017-08-30T19:34:44.495Z,23.18
2017-08-30T19:37:16.440Z,23.57
2017-08-30T19:39:44.023Z,23.10
2017-08-30T19:42:11.172Z,22.69
2017-08-30T19:44:43.665Z,22.74
2017-08-30T19:47:10.991Z,22.72
2017-08-30T19:49:37.874Z,22.31
2017-08-30T19:52:05.729Z,22.61
2017-08-30T19:54:33.344Z,23.00
2017-08-30T19:57:00.354Z,22.80
2017-08-30T19:59:27.387Z,22.08
2017-08-30T20:01:57.441Z,22.50
2017-08-30T20:04:29.461Z,22.12
2017-08-30T20:06:56.570Z,22.86
2017-08-30T20:09:24.128Z,22.85
2017-08-30T20:11:52.019Z,23.14
2017-08-30T20:14:20.742Z,22.29
2017-08-30T20:16:47.932Z,21.97
2017-08-30T20:19:21.618Z,21.76
2017-08-30T20:21:49.020Z,22.28
2017-08-30T20:24:16.813Z,22.52
2017-08-30T20:26:48.941Z,21.65
2017-08-30T20:29:15.777Z,22.46
2017-08-30T20:31:43.760Z,22.59
2017-08-30T20:34:13.919Z,22.42
2017-08-30T20:36:46.224Z,22.02
2017-08-30T20:39:13.138Z,22.41
2017-08-30T20:41:40.080Z,22.62
2017-08-30T20:44:06.908Z,22.58
2017-08-30T20:46:33.784Z,22.62
2017-08-30T20:49:00.653Z,22.72
2017-08-30T20:51:27.566Z,22.05
2017-08-30T20:53:54.400Z,21.65
2017-08-30T20:56:21.233Z,21.83
2017-08-30T20:58:48.115Z,21.58
2017-08-30T21:01:15.024Z,22.33
2017-08-30T21:03:41.993Z,22.47
2017-08-30T21:06:08.793Z,22.43
2017-08-30T21:08:35.657Z,22.51
2017-08-30T21:11:02.492Z,22.14
2017-08-30T21:13:29.302Z,21.17
2017-08-30T21:15:56.219Z,21.00
2017-08-30T21:18:23.049Z,21.29
2017-08-30T21:20:49.903Z,21.26
2017-08-30T21:23:16.737Z,20.76
2017-08-30T21:25:43.583Z,21.25
2017-08-30T21:28:10.441Z,21.39
2017-08-30T21:30:37.264Z,21.34
2017-08-30T21:33:04.096Z,21.98
2017-08-30T21:35:30.936Z,21.64
2017-08-30T21:37:57.985Z,22.08
2017-08-30T21:40:28.477Z,21.00
2017-08-30T21:42:56.378Z,20.60
2017-08-30T21:45:23.411Z,20.55
2017-08-30T21:47:50.259Z,20.72
2017-08-30T21:50:17.100Z,21.64
2017-08-30T21:52:43.981Z,20.90
2017-08-30T21:55:10.816Z,20.85
2017-08-30T21:57:37.665Z,21.25
2017-08-30T22:00:04.528Z,21.84
2017-08-30T22:02:31.389Z,21.90
2017-08-30T22:04:58.242Z,20.81
2017-08-30T22:07:25.203Z,21.11
2017-08-30T22:09:52.635Z,21.05
2017-08-30T22:12:19.746Z,21.22
2017-08-30T22:14:47.046Z,21.35
2017-08-30T22:17:13.891Z,21.80
2017-08-30T22:19:41.184Z,21.78
2017-08-30T22:22:08.383Z,21.88
2017-08-30T22:24:35.298Z,21.71
2017-08-30T22:27:02.118Z,21.78
2017-08-30T22:29:28.951Z,20.97
2017-08-30T22:31:55.911Z,20.58
2017-08-30T22:34:22.734Z,20.33
2017-08-30T22:36:49.577Z,20.24
2017-08-30T22:39:16.722Z,20.02
2017-08-30T22:41:43.712Z,20.31
2017-08-30T22:44:10.659Z,20.10
2017-08-30T22:46:38.217Z,20.20
2017-08-30T22:49:05.476Z,20.69
2017-08-30T22:51:32.355Z,20.59
2017-08-30T22:53:59.746Z,20.59
2017-08-30T22:56:26.775Z,20.21
2017-08-30T22:58:54.199Z,20.20
2017-08-30T23:01:21.069Z,20.79
2017-08-30T23:03:47.938Z,21.17
2017-08-30T23:06:14.793Z,20.84
2017-08-30T23:08:41.645Z,21.00
2017-08-30T23:11:08.516Z,21.16
2017-08-30T23:13:35.377Z,20.95
2017-08-30T23:16:02.240Z,21.28
2017-08-30T23:18:29.178Z,21.56
2017-08-30T23:20:56.039Z,21.71
2017-08-30T23:23:22.877Z,21.20
2017-08-30T23:25:49.752Z,20.88
2017-08-30T23:28:16.623Z,20.99
2017-08-30T23:30:43.479Z,21.49
2017-08-30T23:33:10.317Z,21.60
2017-08-30T23:35:37.229Z,20.50
2017-08-30T23:38:04.055Z,20.85
2017-08-30T23:40:30.889Z,21.40
2017-08-30T23:42:57.723Z,20.79
2017-08-30T23:45:24.602Z,21.21
2017-08-30T23:47:51.470Z,20.87
2017-08-30T23:50:18.304Z,21.22
2017-08-30T23:52:45.210Z,21.08
2017-08-30T23:55:12.090Z,21.01
2017-08-30T23:57:38.936Z,21.13
